createdAt,value
2023-03-31T00:00:29.686Z,10.75
2023-03-31T00:02:57.759Z,10.83
2023-03-31T00:05:26.323Z,10.78
2023-03-31T00:07:58.170Z,10.71
2023-03-31T00:10:26.103Z,10.85
2023-03-31T00:12:53.979Z,10.84
2023-03-31T00:15:21.518Z,10.90
2023-03-31T00:17:49.594Z,10.81
2023-03-31T00:20:17.461Z,10.83
2023-03-31T00:22:45.551Z,10.90
2023-03-31T00:25:14.815Z,10.87
2023-03-31T00:27:43.745Z,10.97
2023-03-31T00:30:13.192Z,10.90
2023-03-31T00:32:41.670Z,10.91
2023-03-31T00:35:09.578Z,10.95
2023-03-31T00:37:37.351Z,10.75
2023-03-31T00:40:05.793Z,11.00
2023-03-31T00:42:33.629Z,10.90
2023-03-31T00:45:16.546Z,10.86
2023-03-31T00:47:50.564Z,10.77
2023-03-31T00:50:31.035Z,10.80
2023-03-31T00:53:11.899Z,10.62
2023-03-31T00:55:47.835Z,10.69
2023-03-31T00:58:16.317Z,10.58
2023-03-31T01:00:44.471Z,10.65
2023-03-31T01:03:12.345Z,10.55
2023-03-31T01:05:46.708Z,10.70
2023-03-31T01:08:15.032Z,10.68
2023-03-31T01:10:46.733Z,10.65
2023-03-31T01:13:15.738Z,10.43
2023-03-31T01:15:43.891Z,10.33
2023-03-31T01:18:13.512Z,10.05
2023-03-31T01:21:25.952Z,10.24
2023-03-31T01:24:24.174Z,10.29
2023-03-31T01:27:36.753Z,10.09
2023-03-31T01:30:24.503Z,10.39
2023-03-31T01:32:57.873Z,10.40
2023-03-31T01:35:33.349Z,10.21
2023-03-31T01:38:11.274Z,10.22
2023-03-31T01:40:51.365Z,10.18
2023-03-31T01:43:37.757Z,10.08
2023-03-31T01:46:26.240Z,10.27
2023-03-31T01:49:31.782Z,10.28
2023-03-31T01:52:19.993Z,10.21
2023-03-31T01:54:56.027Z,10.34
2023-03-31T01:57:27.030Z,10.14
2023-03-31T02:00:10.894Z,10.27
2023-03-31T02:02:50.280Z,10.10
2023-03-31T02:05:20.771Z,10.11
2023-03-31T02:08:11.155Z,10.07
2023-03-31T02:10:41.216Z,10.11
2023-03-31T02:13:11.383Z,9.98
2023-03-31T02:15:44.763Z,9.94
2023-03-31T02:18:16.284Z,9.94
2023-03-31T02:20:46.981Z,10.12
2023-03-31T02:23:19.228Z,9.90
2023-03-31T02:25:58.091Z,9.83
2023-03-31T02:28:27.653Z,9.82
2023-03-31T02:31:18.510Z,9.84
2023-03-31T02:33:47.349Z,9.79
2023-03-31T02:36:15.357Z,9.66
2023-03-31T02:38:47.336Z,9.51
2023-03-31T02:41:15.530Z,9.66
2023-03-31T02:43:43.217Z,9.70
2023-03-31T02:46:10.906Z,9.66
2023-03-31T02:48:42.738Z,9.65
2023-03-31T02:51:29.176Z,9.62
2023-03-31T02:54:20.242Z,9.61
2023-03-31T02:57:15.086Z,9.65
2023-03-31T02:59:48.918Z,9.62
2023-03-31T03:02:28.585Z,9.49
2023-03-31T03:05:24.383Z,9.61
2023-03-31T03:08:22.936Z,9.61
2023-03-31T03:11:08.259Z,9.47
2023-03-31T03:14:14.416Z,9.69
2023-03-31T03:16:48.892Z,9.56
2023-03-31T03:19:21.340Z,9.50
2023-03-31T03:21:49.763Z,9.59
2023-03-31T03:24:18.015Z,9.62
2023-03-31T03:26:46.021Z,9.46
2023-03-31T03:29:14.309Z,9.61
2023-03-31T03:31:42.918Z,9.47
2023-03-31T03:34:10.635Z,9.59
2023-03-31T03:36:38.994Z,9.56
2023-03-31T03:39:07.880Z,9.60
2023-03-31T03:41:35.744Z,9.62
2023-03-31T03:44:03.683Z,9.64
2023-03-31T03:46:31.472Z,9.59
2023-03-31T03:48:59.231Z,9.58
2023-03-31T03:51:27.148Z,9.63
2023-03-31T03:53:54.802Z,9.61
2023-03-31T03:56:22.476Z,9.53
2023-03-31T03:58:50.726Z,9.43
2023-03-31T04:01:18.328Z,9.39
2023-03-31T04:03:46.499Z,9.34
2023-03-31T04:06:14.140Z,9.27
2023-03-31T04:08:41.787Z,9.07
2023-03-31T04:11:19.188Z,9.10
2023-03-31T04:13:47.375Z,8.99
2023-03-31T04:16:15.372Z,8.91
2023-03-31T04:18:43.166Z,8.87
2023-03-31T04:21:15.253Z,8.78
2023-03-31T04:23:43.404Z,8.67
2023-03-31T04:26:11.850Z,8.73
2023-03-31T04:28:39.624Z,8.72
2023-03-31T04:31:07.507Z,8.80
2023-03-31T04:33:35.504Z,8.51
2023-03-31T04:36:03.435Z,8.48
2023-03-31T04:38:31.613Z,8.53
2023-03-31T04:41:07.296Z,8.54
2023-03-31T04:43:35.715Z,8.55
2023-03-31T04:46:03.654Z,8.44
2023-03-31T04:48:31.440Z,8.24
2023-03-31T04:50:59.810Z,8.14
2023-03-31T04:53:27.934Z,8.24
2023-03-31T04:55:55.704Z,8.07
2023-03-31T04:58:23.782Z,8.19
2023-03-31T05:00:52.404Z,8.18
2023-03-31T05:03:20.741Z,8.22
2023-03-31T05:05:49.257Z,8.17
2023-03-31T05:08:17.315Z,8.16
2023-03-31T05:10:45.139Z,8.14
2023-03-31T05:13:13.022Z,8.24
2023-03-31T05:15:40.636Z,8.28
2023-03-31T05:18:08.280Z,8.44
2023-03-31T05:20:36.246Z,8.55
2023-03-31T05:23:03.897Z,8.48
2023-03-31T05:25:31.423Z,8.65
2023-03-31T05:28:00.301Z,8.63
2023-03-31T05:30:28.480Z,8.67
2023-03-31T05:32:56.363Z,8.78
2023-03-31T05:35:25.597Z,8.96
2023-03-31T05:37:53.463Z,8.97
2023-03-31T05:40:21.155Z,8.97
2023-03-31T05:42:49.055Z,8.98
2023-03-31T05:45:16.676Z,9.09
2023-03-31T05:47:44.403Z,9.15
2023-03-31T05:50:14.547Z,9.20
2023-03-31T05:52:42.392Z,9.32
2023-03-31T05:55:10.482Z,9.37
2023-03-31T05:57:38.484Z,9.31
2023-03-31T06:00:06.869Z,9.37
2023-03-31T06:02:35.225Z,9.54
2023-03-31T06:05:03.016Z,9.72
2023-03-31T06:07:30.698Z,9.74
2023-03-31T06:09:58.602Z,9.80
2023-03-31T06:12:26.276Z,9.81
2023-03-31T06:14:53.942Z,9.99
2023-03-31T06:17:21.877Z,9.57
2023-03-31T06:19:49.555Z,9.77
2023-03-31T06:22:17.196Z,9.78
2023-03-31T06:24:45.104Z,10.22
2023-03-31T06:27:12.740Z,10.35
2023-03-31T06:29:40.412Z,10.33
2023-03-31T06:32:08.463Z,10.15
2023-03-31T06:34:36.197Z,10.44
2023-03-31T06:37:03.814Z,10.44
2023-03-31T06:39:31.893Z,10.62
2023-03-31T06:41:59.559Z,10.62
2023-03-31T06:44:27.286Z,10.45
2023-03-31T06:46:55.333Z,10.55
2023-03-31T06:49:23.102Z,10.61
2023-03-31T06:51:50.806Z,10.67
2023-03-31T06:54:18.769Z,10.92
2023-03-31T06:56:46.434Z,11.11
2023-03-31T06:59:14.176Z,11.40
2023-03-31T07:01:42.262Z,11.25
2023-03-31T07:04:10.130Z,11.45
2023-03-31T07:06:37.801Z,11.63
2023-03-31T07:09:05.917Z,11.86
2023-03-31T07:11:34.104Z,11.84
2023-03-31T07:14:01.866Z,11.87
2023-03-31T07:16:29.823Z,11.98
2023-03-31T07:18:57.557Z,12.11
2023-03-31T07:21:25.968Z,11.96
2023-03-31T07:23:53.849Z,12.00
2023-03-31T07:26:21.534Z,12.24
2023-03-31T07:28:49.318Z,11.87
2023-03-31T07:31:17.640Z,12.15
2023-03-31T07:33:45.256Z,12.47
2023-03-31T07:36:14.165Z,12.79
2023-03-31T07:38:43.847Z,12.93
2023-03-31T07:41:16.960Z,12.85
2023-03-31T07:43:45.414Z,12.75
2023-03-31T07:46:24.578Z,12.75
2023-03-31T07:48:53.330Z,13.13
2023-03-31T07:51:24.241Z,12.88
2023-03-31T07:53:52.907Z,13.27
2023-03-31T07:56:22.379Z,12.99
2023-03-31T07:58:50.734Z,13.41
2023-03-31T08:01:20.957Z,13.15
2023-03-31T08:03:49.033Z,13.18
2023-03-31T08:06:22.237Z,12.92
2023-03-31T08:08:50.729Z,13.49
2023-03-31T08:11:19.036Z,13.68
2023-03-31T08:13:47.244Z,13.69
2023-03-31T08:16:15.257Z,13.39
2023-03-31T08:18:42.900Z,13.98
2023-03-31T08:21:10.699Z,14.03
2023-03-31T08:23:38.773Z,13.75
2023-03-31T08:26:10.440Z,14.04
2023-03-31T08:28:39.152Z,14.14
2023-03-31T08:31:08.346Z,14.50
2023-03-31T08:33:36.809Z,14.51
2023-03-31T08:36:06.502Z,14.54
2023-03-31T08:38:38.934Z,14.24
2023-03-31T08:41:17.514Z,14.31
2023-03-31T08:43:46.500Z,14.07
2023-03-31T08:46:15.714Z,14.56
2023-03-31T08:48:50.954Z,15.00
2023-03-31T08:51:22.832Z,15.24
2023-03-31T08:53:59.950Z,15.01
2023-03-31T08:56:28.262Z,14.88
2023-03-31T08:58:56.255Z,15.51
2023-03-31T09:01:30.449Z,15.51
2023-03-31T09:04:22.193Z,14.98
2023-03-31T09:07:08.324Z,15.62
2023-03-31T09:09:38.969Z,15.01
2023-03-31T09:12:11.872Z,15.63
2023-03-31T09:15:02.335Z,15.94
2023-03-31T09:17:34.023Z,15.84
2023-03-31T09:20:28.363Z,16.08
2023-03-31T09:23:08.735Z,16.14
2023-03-31T09:25:38.755Z,16.05
2023-03-31T09:28:14.071Z,16.16
2023-03-31T09:30:42.554Z,16.49
2023-03-31T09:33:19.227Z,17.00
2023-03-31T09:35:47.915Z,16.92
2023-03-31T09:38:17.469Z,17.10
2023-03-31T09:40:45.512Z,17.14
2023-03-31T09:43:18.709Z,16.92
2023-03-31T09:45:57.705Z,17.06
2023-03-31T09:48:34.400Z,17.04
2023-03-31T09:51:07.524Z,16.82
2023-03-31T09:53:48.684Z,17.40
2023-03-31T09:56:44.549Z,17.83
2023-03-31T09:59:18.469Z,17.95
2023-03-31T10:01:47.968Z,17.10
2023-03-31T10:04:48.608Z,17.45
2023-03-31T10:07:21.425Z,17.52
2023-03-31T10:09:49.602Z,17.51
2023-03-31T10:12:20.330Z,17.77
2023-03-31T10:14:49.769Z,17.92
2023-03-31T10:17:22.934Z,18.17
2023-03-31T10:19:52.912Z,17.58
2023-03-31T10:22:20.643Z,17.98
2023-03-31T10:24:50.018Z,18.03
2023-03-31T10:27:29.391Z,18.31
2023-03-31T10:30:01.640Z,18.87
2023-03-31T10:32:31.143Z,18.36
2023-03-31T10:35:07.938Z,18.74
2023-03-31T10:37:36.795Z,19.29
2023-03-31T10:40:17.525Z,19.15
2023-03-31T10:42:47.061Z,19.43
2023-03-31T10:45:36.475Z,19.57
2023-03-31T10:48:06.327Z,19.26
2023-03-31T10:50:36.580Z,19.61
2023-03-31T10:53:15.441Z,19.78
2023-03-31T10:56:11.271Z,19.66
2023-03-31T10:59:07.511Z,18.74
2023-03-31T11:01:41.752Z,18.31
2023-03-31T11:04:21.493Z,18.17
2023-03-31T11:07:15.714Z,18.03
2023-03-31T11:10:11.698Z,18.61
2023-03-31T11:13:07.319Z,18.51
2023-03-31T11:16:07.422Z,18.41
2023-03-31T11:18:46.447Z,19.48
2023-03-31T11:21:32.211Z,18.90
2023-03-31T11:24:22.971Z,19.72
2023-03-31T11:27:05.420Z,20.05
2023-03-31T11:29:52.761Z,20.71
2023-03-31T11:32:48.512Z,20.87
2023-03-31T11:35:20.012Z,20.33
2023-03-31T11:37:53.570Z,20.00
2023-03-31T11:40:43.554Z,20.11
2023-03-31T11:43:21.338Z,19.72
2023-03-31T11:46:06.654Z,19.00
2023-03-31T11:48:43.727Z,19.86
2023-03-31T11:51:25.842Z,19.11
2023-03-31T11:53:57.247Z,19.76
2023-03-31T11:56:37.724Z,20.02
2023-03-31T11:59:06.573Z,20.20
2023-03-31T12:01:51.364Z,19.77
2023-03-31T12:04:28.437Z,19.54
2023-03-31T12:07:04.134Z,18.74
2023-03-31T12:09:54.304Z,18.47
2023-03-31T12:12:29.806Z,18.40
2023-03-31T12:15:10.492Z,18.56
2023-03-31T12:17:39.046Z,18.44
2023-03-31T12:20:25.636Z,19.30
2023-03-31T12:22:54.648Z,19.04
2023-03-31T12:25:23.202Z,19.92
2023-03-31T12:27:50.970Z,20.25
2023-03-31T12:30:32.556Z,20.78
2023-03-31T12:33:07.793Z,20.78
2023-03-31T12:35:43.239Z,21.08
2023-03-31T12:38:29.772Z,20.51
2023-03-31T12:41:01.538Z,20.12
2023-03-31T12:43:54.502Z,20.20
2023-03-31T12:46:57.276Z,20.32
2023-03-31T12:49:33.260Z,19.73
2023-03-31T12:52:04.483Z,19.38
2023-03-31T12:54:47.439Z,19.16
2023-03-31T12:57:20.968Z,19.53
2023-03-31T13:00:26.569Z,19.04
2023-03-31T13:03:33.432Z,19.39
2023-03-31T13:06:02.576Z,19.16
2023-03-31T13:08:49.708Z,19.08
2023-03-31T13:11:23.300Z,18.75
2023-03-31T13:14:13.940Z,18.96
2023-03-31T13:16:44.094Z,18.67
2023-03-31T13:19:23.537Z,18.91
2023-03-31T13:21:59.072Z,19.72
2023-03-31T13:24:28.256Z,19.36
2023-03-31T13:26:57.519Z,19.43
2023-03-31T13:29:42.713Z,19.41
2023-03-31T13:32:26.673Z,19.32
2023-03-31T13:35:14.728Z,18.72
2023-03-31T13:37:53.497Z,19.31
2023-03-31T13:40:21.313Z,19.51
2023-03-31T13:43:40.194Z,19.46
2023-03-31T13:46:16.920Z,19.36
2023-03-31T13:49:22.979Z,19.32
2023-03-31T13:51:58.011Z,19.95
2023-03-31T13:54:50.435Z,19.26
2023-03-31T13:57:33.316Z,18.58
2023-03-31T14:00:25.675Z,18.36
2023-03-31T14:03:06.487Z,18.24
2023-03-31T14:05:37.561Z,18.22
2023-03-31T14:08:10.452Z,18.20
2023-03-31T14:10:39.635Z,18.24
2023-03-31T14:13:18.211Z,18.23
2023-03-31T14:15:54.852Z,17.95
2023-03-31T14:18:27.371Z,18.62
2023-03-31T14:21:14.123Z,18.74
2023-03-31T14:24:08.581Z,18.24
2023-03-31T14:27:09.793Z,18.01
2023-03-31T14:30:10.691Z,17.98
2023-03-31T14:32:57.110Z,18.00
2023-03-31T14:35:31.173Z,17.68
2023-03-31T14:38:00.890Z,17.79
2023-03-31T14:40:29.048Z,17.89
2023-03-31T14:42:59.718Z,18.32
2023-03-31T14:45:31.059Z,18.41
2023-03-31T14:48:13.886Z,19.04
2023-03-31T14:50:46.380Z,19.08
2023-03-31T14:53:15.930Z,19.00
2023-03-31T14:55:58.166Z,19.14
2023-03-31T14:58:37.143Z,19.30
2023-03-31T15:01:09.139Z,19.42
2023-03-31T15:03:40.205Z,19.48
2023-03-31T15:06:11.070Z,19.61
2023-03-31T15:08:39.241Z,19.65
2023-03-31T15:11:20.784Z,19.32
2023-03-31T15:14:03.503Z,19.19
2023-03-31T15:16:42.069Z,19.26
2023-03-31T15:19:16.453Z,19.50
2023-03-31T15:21:44.508Z,19.66
2023-03-31T15:24:13.583Z,19.20
2023-03-31T15:26:46.617Z,18.72
2023-03-31T15:29:21.273Z,18.42
2023-03-31T15:31:49.663Z,18.27
2023-03-31T15:34:26.010Z,18.27
2023-03-31T15:36:55.330Z,17.89
2023-03-31T15:39:27.450Z,18.02
2023-03-31T15:41:56.370Z,17.97
2023-03-31T15:44:39.228Z,17.72
2023-03-31T15:47:17.668Z,17.76
2023-03-31T15:50:03.496Z,17.58
2023-03-31T15:52:36.370Z,17.15
2023-03-31T15:55:25.612Z,17.44
2023-03-31T15:57:55.135Z,17.61
2023-03-31T16:00:31.611Z,17.06
2023-03-31T16:03:05.265Z,17.31
2023-03-31T16:05:53.567Z,17.49
2023-03-31T16:08:47.398Z,16.94
2023-03-31T16:11:28.393Z,17.09
2023-03-31T16:14:01.552Z,17.01
2023-03-31T16:16:29.837Z,17.04
2023-03-31T16:19:08.020Z,16.86
2023-03-31T16:21:42.255Z,16.61
2023-03-31T16:24:10.457Z,16.49
2023-03-31T16:26:38.308Z,16.81
2023-03-31T16:29:06.103Z,16.51
2023-03-31T16:31:37.176Z,16.58
2023-03-31T16:34:08.338Z,16.73
2023-03-31T16:36:36.732Z,16.53
2023-03-31T16:39:05.480Z,16.08
2023-03-31T16:41:34.549Z,16.08
2023-03-31T16:44:02.669Z,15.82
2023-03-31T16:46:31.798Z,16.20
2023-03-31T16:48:59.782Z,16.02
2023-03-31T16:51:28.029Z,15.85
2023-03-31T16:53:58.343Z,15.85
2023-03-31T16:56:27.353Z,16.01
2023-03-31T16:58:55.448Z,16.05
2023-03-31T17:01:23.359Z,15.84
2023-03-31T17:03:51.964Z,15.75
2023-03-31T17:06:19.638Z,15.74
2023-03-31T17:08:47.751Z,15.39
2023-03-31T17:11:15.664Z,15.56
2023-03-31T17:13:43.691Z,15.64
2023-03-31T17:18:44.605Z,15.26
2023-03-31T17:21:13.887Z,15.30
2023-03-31T17:23:41.992Z,15.15
2023-03-31T17:26:10.789Z,15.14
2023-03-31T17:28:38.914Z,15.05
2023-03-31T17:31:17.904Z,14.97
2023-03-31T17:33:46.310Z,14.93
2023-03-31T17:36:14.639Z,14.88
2023-03-31T17:38:42.338Z,14.82
2023-03-31T17:41:13.374Z,14.78
2023-03-31T17:43:45.350Z,14.68
2023-03-31T17:46:14.011Z,14.46
2023-03-31T17:48:42.307Z,14.65
2023-03-31T17:51:15.281Z,14.60
2023-03-31T17:53:44.213Z,14.55
2023-03-31T17:56:12.882Z,14.41
2023-03-31T17:58:41.021Z,14.32
2023-03-31T18:01:10.656Z,14.52
2023-03-31T18:03:39.193Z,14.05
2023-03-31T18:06:09.431Z,14.27
2023-03-31T18:08:37.640Z,14.41
2023-03-31T18:11:07.228Z,14.36
2023-03-31T18:13:35.921Z,14.23
2023-03-31T18:16:04.241Z,14.15
2023-03-31T18:18:32.296Z,14.30
2023-03-31T18:21:04.560Z,14.31
2023-03-31T18:23:32.974Z,14.32
2023-03-31T18:26:01.419Z,14.45
2023-03-31T18:28:29.437Z,14.14
2023-03-31T18:30:57.747Z,14.22
2023-03-31T18:33:26.168Z,13.98
2023-03-31T18:35:54.096Z,14.30
2023-03-31T18:38:22.118Z,13.93
2023-03-31T18:40:50.886Z,13.91
2023-03-31T18:43:19.978Z,14.03
2023-03-31T18:45:50.142Z,13.78
2023-03-31T18:48:18.406Z,13.79
2023-03-31T18:50:46.183Z,13.81
2023-03-31T18:53:17.384Z,13.75
2023-03-31T18:55:52.855Z,13.95
2023-03-31T18:58:21.294Z,13.96
2023-03-31T19:00:49.544Z,13.82
2023-03-31T19:03:17.485Z,13.93
2023-03-31T19:05:45.760Z,13.57
2023-03-31T19:08:16.871Z,13.51
2023-03-31T19:10:44.983Z,13.65
2023-03-31T19:13:15.349Z,13.70
2023-03-31T19:15:43.373Z,13.69
2023-03-31T19:18:14.222Z,13.41
2023-03-31T19:20:46.531Z,13.70
2023-03-31T19:23:14.527Z,13.80
2023-03-31T19:25:43.018Z,13.71
2023-03-31T19:28:17.622Z,13.61
2023-03-31T19:30:48.412Z,13.51
2023-03-31T19:33:19.666Z,13.46
2023-03-31T19:35:48.734Z,13.42
2023-03-31T19:38:18.217Z,13.51
2023-03-31T19:40:46.292Z,13.49
2023-03-31T19:43:19.719Z,13.57
2023-03-31T19:45:48.338Z,13.50
2023-03-31T19:48:18.072Z,13.43
2023-03-31T19:50:47.215Z,13.27
2023-03-31T19:53:14.941Z,13.08
2023-03-31T19:55:43.186Z,13.23
2023-03-31T19:58:11.113Z,13.19
2023-03-31T20:00:38.955Z,13.12
2023-03-31T20:03:07.138Z,13.03
2023-03-31T20:05:35.568Z,12.80
2023-03-31T20:08:03.534Z,12.92
2023-03-31T20:10:31.815Z,12.83
2023-03-31T20:13:00.044Z,12.41
2023-03-31T20:15:28.451Z,12.62
2023-03-31T20:17:56.529Z,12.65
2023-03-31T20:20:24.637Z,12.55
2023-03-31T20:22:52.520Z,12.31
2023-03-31T20:25:20.776Z,12.19
2023-03-31T20:27:48.703Z,12.43
2023-03-31T20:30:16.753Z,12.38
2023-03-31T20:32:45.058Z,12.56
2023-03-31T20:35:13.200Z,12.43
2023-03-31T20:37:40.927Z,12.32
2023-03-31T20:40:11.087Z,12.50
2023-03-31T20:42:38.932Z,12.17
2023-03-31T20:45:07.338Z,12.18
2023-03-31T20:47:35.475Z,11.71
2023-03-31T20:50:03.279Z,11.77
2023-03-31T20:52:30.926Z,11.70
2023-03-31T20:54:59.370Z,11.48
2023-03-31T20:57:27.030Z,11.23
2023-03-31T20:59:54.750Z,11.52
2023-03-31T21:05:08.823Z,11.42
2023-03-31T21:07:41.010Z,11.35
2023-03-31T21:13:24.153Z,11.41
2023-03-31T21:15:52.282Z,11.27
2023-03-31T21:18:20.254Z,11.22
2023-03-31T21:20:55.566Z,11.02
2023-03-31T21:23:25.022Z,11.19
2023-03-31T21:25:55.145Z,11.24
2023-03-31T21:28:25.700Z,11.00
2023-03-31T21:30:55.419Z,11.17
2023-03-31T21:33:24.499Z,11.32
2023-03-31T21:35:52.763Z,11.33
2023-03-31T21:38:20.553Z,11.40
2023-03-31T21:40:49.228Z,11.29
2023-03-31T21:43:17.061Z,11.08
2023-03-31T21:45:44.981Z,11.15
2023-03-31T21:48:12.999Z,11.06
2023-03-31T21:50:41.315Z,11.05
2023-03-31T21:53:10.883Z,11.12
2023-03-31T21:55:38.822Z,11.14
2023-03-31T21:58:06.419Z,10.97
2023-03-31T22:00:34.186Z,11.11
2023-03-31T22:03:22.015Z,11.23
2023-03-31T22:05:57.164Z,11.16
2023-03-31T22:08:25.863Z,11.02
2023-03-31T22:10:54.421Z,11.10
2023-03-31T22:13:22.913Z,11.12
2023-03-31T22:15:51.354Z,10.98
2023-03-31T22:18:19.525Z,11.05
2023-03-31T22:20:47.662Z,11.13
2023-03-31T22:23:15.981Z,11.28
2023-03-31T22:25:43.573Z,10.86
2023-03-31T22:28:11.335Z,10.73
2023-03-31T22:30:39.395Z,10.65
2023-03-31T22:33:07.179Z,10.44
2023-03-31T22:35:35.417Z,10.58
2023-03-31T22:38:04.466Z,10.58
2023-03-31T22:40:34.807Z,10.28
2023-03-31T22:43:03.133Z,10.35
2023-03-31T22:45:31.027Z,10.58
2023-03-31T22:47:59.069Z,10.54
2023-03-31T22:50:27.005Z,10.52
2023-03-31T22:52:56.651Z,10.54
2023-03-31T22:55:28.308Z,10.54
2023-03-31T22:57:56.361Z,10.51
2023-03-31T23:00:24.045Z,10.70
2023-03-31T23:02:52.168Z,10.83
2023-03-31T23:05:20.352Z,10.63
2023-03-31T23:07:48.092Z,10.70
2023-03-31T23:10:16.175Z,10.72
2023-03-31T23:12:44.148Z,10.38
2023-03-31T23:15:12.010Z,10.30
2023-03-31T23:17:39.808Z,10.39
2023-03-31T23:20:08.136Z,10.32
2023-03-31T23:22:36.266Z,10.36
2023-03-31T23:25:04.550Z,10.21
2023-03-31T23:27:32.502Z,9.81
2023-03-31T23:30:00.186Z,9.91
2023-03-31T23:32:27.942Z,9.82
2023-03-31T23:34:55.933Z,10.08
2023-03-31T23:37:23.622Z,9.82
2023-03-31T23:39:51.295Z,9.89
2023-03-31T23:42:19.236Z,9.72
2023-03-31T23:44:46.830Z,9.74
2023-03-31T23:47:14.431Z,9.67
2023-03-31T23:49:42.329Z,9.20
2023-03-31T23:52:10.075Z,9.29
2023-03-31T23:54:37.638Z,9.25
2023-03-31T23:57:05.684Z,9.28
2023-03-31T23:59:33.646Z,9.33
